createdAt,value
2018-07-31T00:01:32.464Z,100317.95
2018-07-31T00:04:00.299Z,100311.37
2018-07-31T00:06:28.113Z,100311.22
2018-07-31T00:08:56.565Z,100313.34
2018-07-31T00:11:24.780Z,100309.40
2018-07-31T00:13:52.923Z,100309.13
2018-07-31T00:16:20.832Z,100310.33
2018-07-31T00:18:48.747Z,100308.11
2018-07-31T00:21:16.543Z,100307.77
2018-07-31T00:23:44.387Z,100310.78
2018-07-31T00:26:12.258Z,100303.86
2018-07-31T00:28:40.096Z,100309.55
2018-07-31T00:31:07.954Z,100314.17
2018-07-31T00:33:35.733Z,100312.07
2018-07-31T00:36:03.879Z,100305.75
2018-07-31T00:38:31.703Z,100313.52
2018-07-31T00:40:59.555Z,100314.04
2018-07-31T00:43:27.363Z,100310.95
2018-07-31T00:45:55.870Z,100315.55
2018-07-31T00:48:23.728Z,100307.23
2018-07-31T00:50:51.567Z,100309.77
2018-07-31T00:53:19.348Z,100307.05
2018-07-31T00:55:47.223Z,100311.03
2018-07-31T00:58:15.007Z,100307.19
2018-07-31T01:00:42.869Z,100308.37
2018-07-31T01:03:10.743Z,100310.05
2018-07-31T01:05:38.519Z,100309.97
2018-07-31T01:08:06.478Z,100311.31
2018-07-31T01:10:34.259Z,100307.97
2018-07-31T01:13:02.079Z,100306.53
2018-07-31T01:15:29.860Z,100311.20
2018-07-31T01:17:57.719Z,100317.17
2018-07-31T01:20:25.505Z,100305.26
2018-07-31T01:22:53.444Z,100304.11
2018-07-31T01:25:21.282Z,100308.37
2018-07-31T01:27:49.110Z,100306.92
2018-07-31T01:30:17.021Z,100310.41
2018-07-31T01:32:44.865Z,100307.05
2018-07-31T01:35:12.714Z,100311.02
2018-07-31T01:37:40.507Z,100314.70
2018-07-31T01:40:08.319Z,100309.27
2018-07-31T01:42:36.106Z,100311.53
2018-07-31T01:45:04.100Z,100306.34
2018-07-31T01:47:31.926Z,100311.52
2018-07-31T01:49:59.765Z,100306.91
2018-07-31T01:52:27.620Z,100308.31
2018-07-31T01:54:55.447Z,100312.17
2018-07-31T01:57:23.238Z,100316.28
2018-07-31T01:59:51.095Z,100314.42
2018-07-31T02:02:18.908Z,100313.30
2018-07-31T02:04:46.730Z,100311.22
2018-07-31T02:07:14.523Z,100316.60
2018-07-31T02:09:42.292Z,100314.50
2018-07-31T02:12:10.368Z,100311.55
2018-07-31T02:14:38.159Z,100313.05
2018-07-31T02:17:06.108Z,100312.58
2018-07-31T02:19:33.949Z,100312.08
2018-07-31T02:22:01.875Z,100315.28
2018-07-31T02:24:29.768Z,100308.86
2018-07-31T02:26:57.635Z,100308.83
2018-07-31T02:29:31.114Z,100304.16
2018-07-31T02:31:58.963Z,100310.05
2018-07-31T02:34:26.787Z,100302.66
2018-07-31T02:36:54.660Z,100300.81
2018-07-31T02:39:22.541Z,100311.64
2018-07-31T02:41:50.433Z,100309.80
2018-07-31T02:44:18.211Z,100304.86
2018-07-31T02:46:46.103Z,100311.87
2018-07-31T02:49:13.898Z,100312.38
2018-07-31T02:51:41.692Z,100308.06
2018-07-31T02:54:09.748Z,100304.64
2018-07-31T02:56:37.561Z,100305.59
2018-07-31T02:59:05.455Z,100305.86
2018-07-31T03:01:33.292Z,100303.97
2018-07-31T03:04:01.165Z,100308.14
2018-07-31T03:06:29.464Z,100310.28
2018-07-31T03:08:57.328Z,100316.09
2018-07-31T03:11:25.235Z,100316.89
2018-07-31T03:13:53.047Z,100317.52
2018-07-31T03:16:20.893Z,100314.58
2018-07-31T03:18:48.696Z,100317.92
2018-07-31T03:21:16.459Z,100310.73
2018-07-31T03:23:44.279Z,100312.40
2018-07-31T03:26:12.120Z,100314.89
2018-07-31T03:28:39.976Z,100316.44
2018-07-31T03:31:07.815Z,100318.27
2018-07-31T03:33:35.650Z,100318.17
2018-07-31T03:36:03.452Z,100322.84
2018-07-31T03:38:31.269Z,100324.38
2018-07-31T03:40:59.091Z,100324.22
2018-07-31T03:43:26.947Z,100319.69
2018-07-31T03:45:54.747Z,100313.25
2018-07-31T03:48:22.610Z,100311.13
2018-07-31T03:50:50.477Z,100309.97
2018-07-31T03:53:18.358Z,100309.88
2018-07-31T03:55:46.211Z,100311.19
2018-07-31T03:58:14.049Z,100319.03
2018-07-31T04:00:41.843Z,100316.88
2018-07-31T04:03:09.632Z,100318.34
2018-07-31T04:05:37.436Z,100318.27
2018-07-31T04:08:05.320Z,100326.93
2018-07-31T04:10:33.310Z,100326.16
2018-07-31T04:13:01.136Z,100323.25
2018-07-31T04:15:29.004Z,100322.43
2018-07-31T04:17:57.767Z,100325.58
2018-07-31T04:20:26.535Z,100320.11
2018-07-31T04:22:54.422Z,100322.25
2018-07-31T04:25:22.620Z,100327.06
2018-07-31T04:27:50.467Z,100332.11
2018-07-31T04:30:18.304Z,100337.41
2018-07-31T04:32:46.107Z,100342.39
2018-07-31T04:35:13.957Z,100341.25
2018-07-31T04:37:41.698Z,100338.17
2018-07-31T04:40:09.575Z,100346.16
2018-07-31T04:42:37.463Z,100350.66
2018-07-31T04:45:07.468Z,100343.89
2018-07-31T04:47:35.794Z,100350.78
2018-07-31T04:50:03.751Z,100348.92
2018-07-31T04:52:31.627Z,100341.98
2018-07-31T04:54:59.508Z,100342.09
2018-07-31T04:57:27.335Z,100345.13
2018-07-31T04:59:55.195Z,100346.23
2018-07-31T05:02:23.384Z,100341.45
2018-07-31T05:04:51.263Z,100346.91
2018-07-31T05:07:19.208Z,100343.51
2018-07-31T05:09:47.020Z,100349.14
2018-07-31T05:12:15.199Z,100348.23
2018-07-31T05:14:43.070Z,100352.81
2018-07-31T05:17:11.012Z,100349.00
2018-07-31T05:19:38.877Z,100354.91
2018-07-31T05:22:06.739Z,100354.32
2018-07-31T05:24:34.734Z,100362.89
2018-07-31T05:27:02.617Z,100355.89
2018-07-31T05:29:30.495Z,100359.41
2018-07-31T05:31:58.388Z,100359.81
2018-07-31T05:34:26.269Z,100351.72
2018-07-31T05:36:54.140Z,100359.51
2018-07-31T05:39:21.995Z,100358.75
2018-07-31T05:41:49.859Z,100360.16
2018-07-31T05:44:18.092Z,100361.11
2018-07-31T05:46:46.023Z,100357.27
2018-07-31T05:49:13.795Z,100360.09
2018-07-31T05:51:41.723Z,100359.80
2018-07-31T05:54:09.775Z,100364.62
2018-07-31T05:56:37.583Z,100356.66
2018-07-31T05:59:05.347Z,100359.91
2018-07-31T06:01:33.176Z,100361.41
2018-07-31T06:04:01.016Z,100362.18
2018-07-31T06:06:28.819Z,100358.45
2018-07-31T06:08:56.715Z,100355.67
2018-07-31T06:11:24.601Z,100358.72
2018-07-31T06:13:52.727Z,100364.55
2018-07-31T06:16:20.584Z,100363.72
2018-07-31T06:18:48.396Z,100364.98
2018-07-31T06:21:16.306Z,100366.06
2018-07-31T06:23:44.144Z,100365.35
2018-07-31T06:26:11.960Z,100370.72
2018-07-31T06:28:39.797Z,100368.76
2018-07-31T06:31:07.855Z,100380.58
2018-07-31T06:33:35.734Z,100377.34
2018-07-31T06:36:03.679Z,100378.29
2018-07-31T06:38:31.495Z,100377.70
2018-07-31T06:40:59.395Z,100379.80
2018-07-31T06:43:27.292Z,100375.01
2018-07-31T06:45:55.107Z,100375.84
2018-07-31T06:48:22.947Z,100384.59
2018-07-31T06:50:50.801Z,100392.92
2018-07-31T06:53:18.627Z,100386.35
2018-07-31T06:55:46.567Z,100391.84
2018-07-31T06:58:14.431Z,100394.42
2018-07-31T07:00:42.306Z,100399.70
2018-07-31T07:03:10.091Z,100391.88
2018-07-31T07:05:37.867Z,100393.73
2018-07-31T07:08:05.707Z,100393.50
2018-07-31T07:10:33.642Z,100395.04
2018-07-31T07:13:01.461Z,100397.13
2018-07-31T07:15:29.304Z,100397.81
2018-07-31T07:17:57.205Z,100388.50
2018-07-31T07:20:24.991Z,100393.97
2018-07-31T07:22:52.807Z,100398.41
2018-07-31T07:25:20.682Z,100393.91
2018-07-31T07:27:48.524Z,100396.82
2018-07-31T07:30:16.341Z,100391.66
2018-07-31T07:32:44.159Z,100396.11
2018-07-31T07:35:11.964Z,100397.75
2018-07-31T07:37:39.904Z,100394.00
2018-07-31T07:40:07.746Z,100394.66
2018-07-31T07:42:35.545Z,100396.52
2018-07-31T07:45:03.804Z,100400.44
2018-07-31T07:47:31.613Z,100401.94
2018-07-31T07:49:59.403Z,100403.03
2018-07-31T07:52:27.200Z,100401.23
2018-07-31T07:54:55.076Z,100404.97
2018-07-31T07:57:22.891Z,100402.30
2018-07-31T07:59:50.718Z,100404.27
2018-07-31T08:02:18.576Z,100403.33
2018-07-31T08:04:46.455Z,100400.48
2018-07-31T08:07:14.251Z,100405.41
2018-07-31T08:09:42.089Z,100407.27
2018-07-31T08:12:09.972Z,100406.73
2018-07-31T08:14:37.711Z,100402.49
2018-07-31T08:17:05.551Z,100410.20
2018-07-31T08:19:33.356Z,100405.10
2018-07-31T08:22:01.234Z,100406.70
2018-07-31T08:24:28.992Z,100403.10
2018-07-31T08:26:56.783Z,100404.41
2018-07-31T08:29:24.621Z,100413.27
2018-07-31T08:31:52.416Z,100410.16
2018-07-31T08:34:20.257Z,100410.81
2018-07-31T08:36:48.076Z,100409.73
2018-07-31T08:39:15.839Z,100406.50
2018-07-31T08:41:43.601Z,100406.59
2018-07-31T08:44:11.497Z,100403.59
2018-07-31T08:46:39.283Z,100409.25
2018-07-31T08:49:07.107Z,100407.85
2018-07-31T08:51:34.926Z,100407.48
2018-07-31T08:54:02.812Z,100408.31
2018-07-31T08:56:30.616Z,100403.95
2018-07-31T08:58:58.451Z,100404.31
2018-07-31T09:01:26.368Z,100391.92
2018-07-31T09:03:54.193Z,100388.20
2018-07-31T09:06:22.037Z,100394.20
2018-07-31T09:08:49.863Z,100393.94
2018-07-31T09:11:17.652Z,100394.88
2018-07-31T09:13:45.539Z,100396.95
2018-07-31T09:16:13.384Z,100400.53
2018-07-31T09:18:41.171Z,100401.62
2018-07-31T09:21:09.120Z,100400.53
2018-07-31T09:23:37.019Z,100401.41
2018-07-31T09:26:04.864Z,100398.52
2018-07-31T09:28:32.688Z,100398.16
2018-07-31T09:31:06.454Z,100395.26
2018-07-31T09:33:34.158Z,100392.93
2018-07-31T09:36:02.039Z,100399.59
2018-07-31T09:38:29.868Z,100385.70
2018-07-31T09:40:57.678Z,100394.41
2018-07-31T09:43:25.599Z,100387.01
2018-07-31T09:45:53.444Z,100390.53
2018-07-31T09:48:21.291Z,100391.11
2018-07-31T09:50:49.112Z,100384.63
2018-07-31T09:53:16.943Z,100388.45
2018-07-31T09:55:44.821Z,100387.48
2018-07-31T09:58:12.624Z,100388.63
2018-07-31T10:00:46.059Z,100377.49
2018-07-31T10:03:13.906Z,100384.94
2018-07-31T10:05:41.739Z,100385.48
2018-07-31T10:08:09.652Z,100377.05
2018-07-31T10:10:37.510Z,100371.59
2018-07-31T10:13:05.477Z,100375.20
2018-07-31T10:15:33.383Z,100373.39
2018-07-31T10:18:01.224Z,100369.17
2018-07-31T10:20:29.087Z,100366.28
2018-07-31T10:22:56.855Z,100367.67
2018-07-31T10:25:24.670Z,100367.09
2018-07-31T10:27:52.470Z,100371.12
2018-07-31T10:30:20.267Z,100363.27
2018-07-31T10:32:48.031Z,100357.95
2018-07-31T10:35:15.807Z,100354.14
2018-07-31T10:37:43.761Z,100361.55
2018-07-31T10:40:11.538Z,100351.98
2018-07-31T10:42:39.409Z,100357.18
2018-07-31T10:45:07.254Z,100359.92
2018-07-31T10:47:35.028Z,100354.05
2018-07-31T10:50:02.888Z,100346.58
2018-07-31T10:52:30.611Z,100347.73
2018-07-31T10:54:58.460Z,100348.63
2018-07-31T10:57:26.210Z,100347.83
2018-07-31T10:59:53.998Z,100345.49
2018-07-31T11:02:21.762Z,100345.57
2018-07-31T11:04:49.619Z,100337.86
2018-07-31T11:07:17.573Z,100337.63
2018-07-31T11:09:45.343Z,100335.70
2018-07-31T11:12:13.242Z,100339.16
2018-07-31T11:14:41.095Z,100342.95
2018-07-31T11:17:08.969Z,100333.87
2018-07-31T11:19:36.839Z,100330.97
2018-07-31T11:22:04.624Z,100326.13
2018-07-31T11:24:32.445Z,100326.88
2018-07-31T11:27:00.330Z,100334.36
2018-07-31T11:29:28.147Z,100327.33
2018-07-31T11:31:56.019Z,100328.40
2018-07-31T11:34:23.801Z,100335.80
2018-07-31T11:36:51.606Z,100332.55
2018-07-31T11:39:19.535Z,100331.91
2018-07-31T11:41:47.421Z,100326.66
2018-07-31T11:44:15.163Z,100330.29
2018-07-31T11:46:42.976Z,100328.38
2018-07-31T11:49:10.903Z,100330.84
2018-07-31T11:51:38.707Z,100325.77
2018-07-31T11:54:06.635Z,100322.53
2018-07-31T11:56:34.488Z,100324.45
2018-07-31T11:59:02.305Z,100314.26
2018-07-31T12:01:30.187Z,100307.53
2018-07-31T12:03:58.072Z,100309.00
2018-07-31T12:06:25.931Z,100315.13
2018-07-31T12:08:53.757Z,100306.86
2018-07-31T12:11:21.569Z,100310.95
2018-07-31T12:13:49.477Z,100311.05
2018-07-31T12:16:17.287Z,100308.55
2018-07-31T12:18:45.127Z,100303.53
2018-07-31T12:21:12.929Z,100311.53
2018-07-31T12:23:40.684Z,100302.80
2018-07-31T12:26:08.481Z,100303.38
2018-07-31T12:28:36.322Z,100299.62
2018-07-31T12:31:04.187Z,100298.59
2018-07-31T12:33:32.089Z,100299.94
2018-07-31T12:35:59.880Z,100299.06
2018-07-31T12:38:27.677Z,100305.41
2018-07-31T12:40:55.523Z,100303.97
2018-07-31T12:43:23.329Z,100305.36
2018-07-31T12:45:51.147Z,100303.86
2018-07-31T12:48:18.960Z,100308.52
2018-07-31T12:50:46.782Z,100304.69
2018-07-31T12:53:14.648Z,100304.73
2018-07-31T12:55:42.417Z,100311.73
2018-07-31T12:58:10.243Z,100301.34
2018-07-31T13:00:38.299Z,100306.97
2018-07-31T13:03:06.171Z,100309.95
2018-07-31T13:05:33.933Z,100303.89
2018-07-31T13:08:01.787Z,100301.09
2018-07-31T13:10:29.627Z,100300.61
2018-07-31T13:12:57.467Z,100302.73
2018-07-31T13:15:25.252Z,100297.18
2018-07-31T13:17:53.048Z,100296.91
2018-07-31T13:20:20.859Z,100293.91
2018-07-31T13:22:48.705Z,100287.59
2018-07-31T13:25:16.555Z,100281.52
2018-07-31T13:27:44.581Z,100280.41
2018-07-31T13:30:12.343Z,100286.27
2018-07-31T13:32:40.187Z,100282.20
2018-07-31T13:35:07.963Z,100277.41
2018-07-31T13:37:35.743Z,100271.76
2018-07-31T13:40:03.643Z,100277.31
2018-07-31T13:42:31.487Z,100278.95
2018-07-31T13:44:59.283Z,100279.74
2018-07-31T13:47:27.104Z,100281.61
2018-07-31T13:49:54.914Z,100277.99
2018-07-31T13:52:22.691Z,100281.02
2018-07-31T13:54:50.535Z,100273.52
2018-07-31T13:57:18.395Z,100276.21
2018-07-31T13:59:46.216Z,100273.52
2018-07-31T14:02:14.030Z,100266.54
2018-07-31T14:04:41.730Z,100274.59
2018-07-31T14:07:09.636Z,100270.11
2018-07-31T14:09:37.464Z,100268.50
2018-07-31T14:12:05.330Z,100267.95
2018-07-31T14:14:33.111Z,100274.34
2018-07-31T14:17:00.903Z,100272.84
2018-07-31T14:19:28.719Z,100277.82
2018-07-31T14:21:56.571Z,100278.63
2018-07-31T14:24:24.441Z,100276.63
2018-07-31T14:26:52.251Z,100279.62
2018-07-31T14:29:20.124Z,100277.33
2018-07-31T14:31:47.935Z,100279.34
2018-07-31T14:34:15.732Z,100280.45
2018-07-31T14:36:43.563Z,100285.37
2018-07-31T14:39:11.375Z,100278.05
2018-07-31T14:41:39.298Z,100283.19
2018-07-31T14:44:07.320Z,100280.95
2018-07-31T14:46:35.223Z,100289.41
2018-07-31T14:49:03.078Z,100284.88
2018-07-31T14:51:30.887Z,100280.77
2018-07-31T14:53:58.707Z,100276.17
2018-07-31T14:56:26.863Z,100275.69
2018-07-31T14:58:54.684Z,100277.42
2018-07-31T15:01:22.828Z,100276.94
2018-07-31T15:03:50.745Z,100273.74
2018-07-31T15:06:18.513Z,100272.00
2018-07-31T15:08:46.351Z,100273.56
2018-07-31T15:11:14.280Z,100276.29
2018-07-31T15:13:41.963Z,100267.84
2018-07-31T15:16:09.775Z,100275.38
2018-07-31T15:18:37.696Z,100274.80
2018-07-31T15:21:05.600Z,100268.67
2018-07-31T15:23:33.463Z,100270.83
2018-07-31T15:26:01.328Z,100273.14
2018-07-31T15:28:29.151Z,100276.08
2018-07-31T15:30:57.239Z,100278.31
2018-07-31T15:33:25.427Z,100277.59
2018-07-31T15:35:54.040Z,100272.91
2018-07-31T15:38:21.859Z,100277.81
2018-07-31T15:40:49.656Z,100273.30
2018-07-31T15:43:17.535Z,100273.50
2018-07-31T15:45:45.443Z,100270.27
2018-07-31T15:48:13.292Z,100273.84
2018-07-31T15:50:41.211Z,100277.34
2018-07-31T15:53:09.260Z,100275.91
2018-07-31T15:55:37.067Z,100290.05
2018-07-31T15:58:04.966Z,100291.50
2018-07-31T16:00:32.783Z,100294.41
2018-07-31T16:03:00.607Z,100298.23
2018-07-31T16:05:28.475Z,100342.16
2018-07-31T16:07:56.247Z,100327.75
2018-07-31T16:10:27.296Z,100325.63
2018-07-31T16:12:55.159Z,100316.42
2018-07-31T16:15:22.972Z,100323.91
2018-07-31T16:17:50.836Z,100346.55
2018-07-31T16:20:18.709Z,100353.62
2018-07-31T16:22:46.648Z,100329.80
2018-07-31T16:25:14.565Z,100335.83
2018-07-31T16:27:42.407Z,100365.28
2018-07-31T16:30:10.270Z,100372.69
2018-07-31T16:32:38.089Z,100390.20
2018-07-31T16:35:05.985Z,100398.84
2018-07-31T16:37:33.802Z,100400.66
2018-07-31T16:40:01.621Z,100406.09
2018-07-31T16:42:29.433Z,100399.61
2018-07-31T16:44:57.714Z,100381.94
2018-07-31T16:47:56.316Z,100368.26
2018-07-31T16:50:24.088Z,100367.77
2018-07-31T16:52:52.010Z,100351.62
2018-07-31T16:55:19.840Z,100338.00
2018-07-31T16:57:47.569Z,100334.65
2018-07-31T17:00:15.375Z,100331.50
2018-07-31T17:02:43.171Z,100326.11
2018-07-31T17:05:11.071Z,100327.38
2018-07-31T17:07:38.983Z,100321.42
2018-07-31T17:10:06.801Z,100318.81
2018-07-31T17:12:35.120Z,100323.80
2018-07-31T17:15:03.513Z,100323.48
2018-07-31T17:17:31.354Z,100329.91
2018-07-31T17:19:59.180Z,100332.15
2018-07-31T17:22:27.047Z,100331.16
2018-07-31T17:24:54.962Z,100332.41
2018-07-31T17:27:22.816Z,100340.70
2018-07-31T17:29:50.687Z,100338.11
2018-07-31T17:32:18.508Z,100339.86
2018-07-31T17:34:46.368Z,100345.48
2018-07-31T17:37:14.207Z,100346.27
2018-07-31T17:39:42.144Z,100347.09
2018-07-31T17:42:09.968Z,100342.08
2018-07-31T17:44:37.838Z,100342.36
2018-07-31T17:47:05.807Z,100347.70
2018-07-31T17:49:33.726Z,100352.25
2018-07-31T17:52:01.556Z,100341.74
2018-07-31T17:54:29.555Z,100347.80
2018-07-31T17:56:57.347Z,100350.35
2018-07-31T17:59:25.200Z,100342.83
2018-07-31T18:01:52.986Z,100342.48
2018-07-31T18:04:20.872Z,100359.08
2018-07-31T18:06:48.683Z,100356.16
2018-07-31T18:09:16.470Z,100356.45
2018-07-31T18:11:44.323Z,100354.23
2018-07-31T18:14:12.173Z,100352.59
2018-07-31T18:16:39.954Z,100348.72
2018-07-31T18:19:08.460Z,100360.64
2018-07-31T18:21:36.383Z,100355.83
2018-07-31T18:24:04.996Z,100362.71
2018-07-31T18:26:32.768Z,100364.92
2018-07-31T18:29:00.961Z,100363.13
2018-07-31T18:31:28.894Z,100367.48
2018-07-31T18:33:56.681Z,100372.99
2018-07-31T18:36:24.624Z,100372.76
2018-07-31T18:38:52.650Z,100384.66
2018-07-31T18:41:20.454Z,100380.88
2018-07-31T18:43:48.319Z,100383.88
2018-07-31T18:46:16.155Z,100385.66
2018-07-31T18:48:44.000Z,100383.19
2018-07-31T18:51:11.868Z,100387.62
2018-07-31T18:53:39.716Z,100386.51
2018-07-31T18:56:07.789Z,100391.75
2018-07-31T18:58:35.579Z,100386.74
2018-07-31T19:01:03.531Z,100385.22
2018-07-31T19:03:31.403Z,100392.98
2018-07-31T19:05:59.173Z,100397.05
2018-07-31T19:08:27.014Z,100403.94
2018-07-31T19:10:54.790Z,100405.78
2018-07-31T19:13:22.738Z,100409.99
2018-07-31T19:15:50.801Z,100402.61
2018-07-31T19:18:19.615Z,100412.06
2018-07-31T19:20:47.519Z,100412.30
2018-07-31T19:23:15.291Z,100403.67
2018-07-31T19:25:43.295Z,100405.80
2018-07-31T19:28:11.260Z,100409.53
2018-07-31T19:30:38.986Z,100416.23
2018-07-31T19:33:06.908Z,100420.90
2018-07-31T19:35:34.705Z,100424.27
2018-07-31T19:38:02.535Z,100423.70
2018-07-31T19:40:30.413Z,100433.16
2018-07-31T19:42:58.063Z,100425.91
2018-07-31T19:45:26.028Z,100426.27
2018-07-31T19:47:54.048Z,100433.85
2018-07-31T19:50:22.815Z,100430.68
2018-07-31T19:52:50.907Z,100431.41
2018-07-31T19:55:18.885Z,100436.88
2018-07-31T19:57:46.688Z,100443.65
2018-07-31T20:00:14.556Z,100446.44
2018-07-31T20:02:42.555Z,100444.80
2018-07-31T20:05:10.422Z,100449.12
2018-07-31T20:07:38.604Z,100456.47
2018-07-31T20:10:06.791Z,100463.98
2018-07-31T20:12:34.735Z,100468.61
2018-07-31T20:15:02.647Z,100466.89
2018-07-31T20:17:30.465Z,100473.47
2018-07-31T20:19:58.313Z,100468.01
2018-07-31T20:22:26.207Z,100475.19
2018-07-31T20:24:55.807Z,100480.67
2018-07-31T20:27:23.658Z,100488.70
2018-07-31T20:29:51.494Z,100474.08
2018-07-31T20:32:19.279Z,100474.52
2018-07-31T20:34:47.407Z,100479.86
2018-07-31T20:37:15.148Z,100481.93
2018-07-31T20:39:42.974Z,100485.42
2018-07-31T20:42:10.878Z,100482.59
2018-07-31T20:44:38.687Z,100492.75
2018-07-31T20:47:07.209Z,100494.89
2018-07-31T20:49:34.983Z,100493.69
2018-07-31T20:52:02.855Z,100494.89
2018-07-31T20:54:30.679Z,100491.39
2018-07-31T20:56:58.456Z,100493.84
2018-07-31T20:59:26.638Z,100496.72
2018-07-31T21:01:54.495Z,100501.86
2018-07-31T21:04:22.543Z,100507.94
2018-07-31T21:06:50.376Z,100508.39
2018-07-31T21:09:18.783Z,100505.55
2018-07-31T21:11:46.787Z,100509.52
2018-07-31T21:14:14.809Z,100519.39
2018-07-31T21:16:42.716Z,100520.27
2018-07-31T21:19:10.567Z,100530.24
2018-07-31T21:21:38.344Z,100539.13
2018-07-31T21:24:06.564Z,100534.79
2018-07-31T21:26:34.489Z,100535.84
2018-07-31T21:29:02.408Z,100546.84
2018-07-31T21:31:30.334Z,100548.77
2018-07-31T21:33:58.148Z,100551.27
2018-07-31T21:36:25.979Z,100551.27
2018-07-31T21:38:53.740Z,100546.59
2018-07-31T21:41:21.567Z,100549.27
2018-07-31T21:43:49.401Z,100548.04
2018-07-31T21:46:17.214Z,100542.95
2018-07-31T21:48:45.041Z,100543.67
2018-07-31T21:51:12.796Z,100546.30
2018-07-31T21:53:40.625Z,100546.30
2018-07-31T21:56:08.484Z,100544.31
2018-07-31T21:58:36.291Z,100549.52
2018-07-31T22:01:07.093Z,100552.25
2018-07-31T22:03:36.247Z,100555.05
2018-07-31T22:06:04.760Z,100556.79
2018-07-31T22:08:33.043Z,100561.81
2018-07-31T22:11:01.116Z,100559.75
2018-07-31T22:13:29.016Z,100557.85
2018-07-31T22:15:56.854Z,100562.87
2018-07-31T22:18:24.663Z,100563.93
2018-07-31T22:20:52.487Z,100563.28
2018-07-31T22:23:20.342Z,100561.47
2018-07-31T22:25:48.195Z,100562.12
2018-07-31T22:28:15.969Z,100562.05
2018-07-31T22:30:43.811Z,100567.00
2018-07-31T22:33:11.748Z,100569.22
2018-07-31T22:35:39.706Z,100567.31
2018-07-31T22:38:07.530Z,100565.36
2018-07-31T22:40:35.364Z,100576.08
2018-07-31T22:43:03.247Z,100580.28
2018-07-31T22:45:31.116Z,100588.51
2018-07-31T22:47:58.828Z,100594.30
2018-07-31T22:50:26.684Z,100600.80
2018-07-31T22:52:54.463Z,100599.90
2018-07-31T22:55:22.239Z,100603.78
2018-07-31T22:57:50.080Z,100604.60
2018-07-31T23:00:17.965Z,100609.86
2018-07-31T23:02:45.834Z,100615.63
2018-07-31T23:05:13.563Z,100612.17
2018-07-31T23:07:41.388Z,100619.83
2018-07-31T23:10:09.193Z,100614.31
2018-07-31T23:12:37.039Z,100619.83
2018-07-31T23:15:06.273Z,100612.00
2018-07-31T23:17:34.147Z,100619.00
2018-07-31T23:20:03.093Z,100616.30
2018-07-31T23:22:46.201Z,100616.09
2018-07-31T23:25:13.960Z,100615.70
2018-07-31T23:27:41.730Z,100617.16
2018-07-31T23:30:09.799Z,100618.73
2018-07-31T23:32:37.984Z,100616.19
2018-07-31T23:35:06.073Z,100614.84
2018-07-31T23:37:33.970Z,100631.32
2018-07-31T23:40:02.723Z,100627.67
2018-07-31T23:42:31.177Z,100624.97
2018-07-31T23:44:59.064Z,100629.55
2018-07-31T23:47:27.983Z,100629.31
2018-07-31T23:49:56.291Z,100627.82
2018-07-31T23:52:24.173Z,100625.06
2018-07-31T23:54:52.191Z,100622.66
2018-07-31T23:57:20.071Z,100611.95
2018-07-31T23:59:48.095Z,100616.00
